Time;durP1;ratioP1;P1;durP2;ratioP2;P2;SDS_P1;SDS_P2;PMS_P1;PMS_P2;Temp;Humidity;BMP_temperature;BMP_pressure;BME280_temperature;BME280_humidity;BME280_pressure;Samples;Min_cycle;Max_cycle;Signal;HPM_P1;HPM_P2
2022/10/25 00:02:19;;;;;;;7.88;2.60;;;;;;;17.04;66.47;100054.69;4993570;28;97964;-87
2022/10/25 00:04:45;;;;;;;7.28;2.88;;;;;;;17.10;66.87;100062.25;4977467;28;101021;-88
2022/10/25 00:07:11;;;;;;;11.23;2.70;;;;;;;17.07;66.36;100062.44;4977157;28;96961;-90
2022/10/25 00:09:37;;;;;;;8.02;2.85;;;;;;;17.05;66.41;100054.59;4981197;28;97396;-89
2022/10/25 00:12:03;;;;;;;5.63;2.55;;;;;;;16.97;66.58;100052.44;4994114;28;98245;-90
2022/10/25 00:14:29;;;;;;;6.20;2.38;;;;;;;17.01;66.81;100060.19;4994177;28;101087;-89
2022/10/25 00:16:54;;;;;;;6.10;2.78;;;;;;;16.98;66.79;100056.78;4990549;28;98194;-89
2022/10/25 00:19:20;;;;;;;4.80;2.63;;;;;;;16.96;66.62;100056.06;4994881;28;97149;-88
2022/10/25 00:21:45;;;;;;;4.82;2.53;;;;;;;17.00;66.57;100059.34;4966385;28;101264;-88
2022/10/25 00:24:12;;;;;;;5.93;3.10;;;;;;;16.96;66.64;100061.34;4991642;28;96785;-80
2022/10/25 00:26:40;;;;;;;5.70;2.90;;;;;;;16.84;66.60;100032.13;4989842;28;96793;-87
2022/10/25 00:29:08;;;;;;;6.55;2.78;;;;;;;16.85;67.08;100057.69;5008112;28;97430;-88
2022/10/25 00:31:34;;;;;;;6.45;2.75;;;;;;;16.81;67.23;100064.13;4991992;28;98583;-90
2022/10/25 00:33:59;;;;;;;8.00;2.70;;;;;;;16.79;67.08;100061.59;4972926;28;101419;-90
2022/10/25 00:36:26;;;;;;;11.90;2.80;;;;;;;16.70;67.02;100046.25;5021258;28;96945;-89
2022/10/25 00:38:52;;;;;;;5.25;2.35;;;;;;;16.79;67.36;100066.03;4976879;28;96914;-89
2022/10/25 00:41:20;;;;;;;4.40;2.40;;;;;;;16.75;67.07;100060.91;4988815;28;97374;-89
2022/10/25 00:43:51;;;;;;;6.65;2.78;;;;;;;16.77;66.60;100063.47;4998799;28;98678;-89
2022/10/25 00:46:17;;;;;;;5.78;2.97;;;;;;;16.68;66.95;100054.28;4996153;28;96921;-86
2022/10/25 00:48:53;;;;;;;7.60;2.53;;;;;;;16.59;66.64;100040.78;4996636;28;96607;-89
2022/10/25 00:51:20;;;;;;;5.88;2.63;;;;;;;16.67;66.66;100063.19;5014064;28;98377;-90
2022/10/25 00:53:46;;;;;;;7.82;2.67;;;;;;;16.61;67.09;100063.56;4981815;28;101648;-90
2022/10/25 00:56:12;;;;;;;6.65;2.92;;;;;;;16.63;66.83;100058.16;4994245;28;96959;-88
2022/10/25 00:58:38;;;;;;;4.50;2.63;;;;;;;16.57;66.81;100051.44;4979455;28;96878;-89
2022/10/25 01:01:06;;;;;;;4.63;3.28;;;;;;;16.50;66.71;100043.03;4991324;28;98060;-92
2022/10/25 01:03:34;;;;;;;8.10;3.10;;;;;;;16.56;67.06;100047.09;4975266;28;101379;-88
2022/10/25 01:06:00;;;;;;;5.07;2.58;;;;;;;16.57;66.87;100062.06;4988150;28;97117;-89
2022/10/25 01:08:26;;;;;;;7.07;3.45;;;;;;;16.57;67.01;100053.25;4966619;28;106928;-83
2022/10/25 01:10:52;;;;;;;10.55;3.40;;;;;;;16.60;66.65;100061.00;4979477;28;101924;-89
2022/10/25 01:13:18;;;;;;;4.78;2.88;;;;;;;16.57;66.73;100051.44;4999468;28;100575;-84
2022/10/25 01:16:05;;;;;;;5.15;3.00;;;;;;;16.48;66.69;100047.56;5011818;28;97190;-90
2022/10/25 01:18:42;;;;;;;6.38;2.80;;;;;;;16.49;66.93;100045.78;4993509;28;97202;-88
2022/10/25 01:21:16;;;;;;;6.05;2.70;;;;;;;16.52;66.62;100056.19;4988289;28;101032;-89
2022/10/25 01:24:00;;;;;;;5.63;3.15;;;;;;;16.44;66.55;100053.19;4989172;28;101550;-88
2022/10/25 01:26:38;;;;;;;7.32;2.83;;;;;;;16.41;67.06;100048.94;4992381;28;97067;-90
2022/10/25 01:29:28;;;;;;;9.23;3.13;;;;;;;16.39;66.96;100049.97;4993095;28;96794;-89
2022/10/25 01:32:03;;;;;;;4.93;2.58;;;;;;;16.42;66.79;100052.41;4997268;28;101591;-89
2022/10/25 01:34:40;;;;;;;7.65;3.20;;;;;;;16.41;66.60;100045.44;4988875;28;98475;-88
2022/10/25 01:37:30;;;;;;;6.40;3.13;;;;;;;16.32;66.66;100056.56;4989000;28;97007;-87
2022/10/25 01:40:03;;;;;;;5.30;3.00;;;;;;;16.36;66.35;100048.34;4963453;28;97442;-87
2022/10/25 01:42:36;;;;;;;7.80;3.05;;;;;;;16.33;66.79;100058.28;4966263;28;101694;-87
2022/10/25 01:45:15;;;;;;;7.10;2.92;;;;;;;16.30;66.63;100039.00;4984677;28;102333;-88
2022/10/25 01:47:50;;;;;;;8.57;2.75;;;;;;;16.28;67.18;100050.63;4989901;28;96963;-91
2022/10/25 01:50:25;;;;;;;4.57;2.33;;;;;;;16.25;66.59;100048.16;4972098;28;98471;-82
2022/10/25 01:52:51;;;;;;;5.55;3.00;;;;;;;16.33;66.45;100061.78;4972034;28;101790;-91
2022/10/25 01:55:18;;;;;;;7.25;2.65;;;;;;;16.21;66.19;100034.28;4973695;28;101028;-81
2022/10/25 01:58:20;;;;;;;6.32;3.10;;;;;;;16.30;66.32;100062.81;4955883;28;97984;-87
2022/10/25 02:01:01;;;;;;;6.35;2.85;;;;;;;16.18;66.48;100041.56;4986788;28;96932;-87
2022/10/25 02:03:31;;;;;;;5.20;2.70;;;;;;;16.25;66.43;100056.97;4975075;28;101454;-89
2022/10/25 02:06:15;;;;;;;6.93;2.87;;;;;;;16.23;66.34;100058.88;4994587;28;101278;-90
2022/10/25 02:08:53;;;;;;;5.68;2.55;;;;;;;16.09;66.16;100040.34;4976500;28;97163;-88
2022/10/25 02:11:23;;;;;;;5.05;2.67;;;;;;;16.13;66.37;100048.94;4975679;28;97364;-81
2022/10/25 02:14:10;;;;;;;5.05;2.63;;;;;;;16.24;66.13;100063.22;4990679;28;98736;-89
2022/10/25 02:16:45;;;;;;;3.67;2.30;;;;;;;16.21;66.32;100071.34;4991868;28;98316;-89
2022/10/25 02:19:14;;;;;;;5.60;2.60;;;;;;;16.27;65.86;100054.22;4979202;28;97039;-92
2022/10/25 02:21:41;;;;;;;3.80;2.80;;;;;;;16.18;65.77;100049.50;4992510;28;97419;-89
2022/10/25 02:24:16;;;;;;;7.38;3.15;;;;;;;16.20;66.10;100059.06;4981066;28;100108;-90
2022/10/25 02:26:43;;;;;;;7.22;2.40;;;;;;;16.14;66.18;100055.91;4970797;28;101310;-90
2022/10/25 02:29:10;;;;;;;7.60;2.65;;;;;;;16.06;66.39;100059.06;4976407;28;97151;-90
2022/10/25 02:31:36;;;;;;;4.85;3.05;;;;;;;16.09;66.46;100058.88;4976788;28;97077;-87
2022/10/25 02:34:02;;;;;;;6.57;2.97;;;;;;;16.07;66.50;100056.28;4995075;28;98418;-90
2022/10/25 02:36:28;;;;;;;6.68;2.53;;;;;;;16.02;66.74;100066.31;4981420;28;97902;-89
2022/10/25 02:38:54;;;;;;;10.00;2.80;;;;;;;16.10;66.52;100063.19;4979214;28;97502;-90
2022/10/25 02:41:21;;;;;;;6.38;3.38;;;;;;;15.99;65.96;100055.91;4980584;28;97544;-83
2022/10/25 02:43:47;;;;;;;10.25;3.28;;;;;;;15.93;66.48;100063.38;4988756;28;98725;-87
2022/10/25 02:46:20;;;;;;;6.63;2.35;;;;;;;15.96;66.53;100064.03;4999612;28;98297;-89
2022/10/25 02:48:46;;;;;;;10.60;2.90;;;;;;;15.91;66.17;100044.94;4997487;28;98350;-91
2022/10/25 02:51:12;;;;;;;4.05;2.78;;;;;;;16.06;66.02;100067.00;4984127;28;97441;-91
2022/10/25 02:53:38;;;;;;;8.35;4.05;;;;;;;15.91;66.55;100062.59;4974533;28;101187;-88
2022/10/25 02:56:06;;;;;;;5.72;3.22;;;;;;;15.89;66.67;100075.09;4995031;28;101218;-89
2022/10/25 02:58:34;;;;;;;5.78;2.67;;;;;;;15.88;66.30;100050.41;4992071;28;97347;-89
2022/10/25 03:00:59;;;;;;;5.75;2.72;;;;;;;15.91;66.25;100066.13;4977352;28;97066;-88
2022/10/25 03:03:25;;;;;;;5.63;2.97;;;;;;;15.81;66.63;100076.41;4977836;28;100778;-89
2022/10/25 03:05:51;;;;;;;8.68;2.63;;;;;;;15.80;66.72;100074.69;4996296;28;101092;-89
2022/10/25 03:08:17;;;;;;;6.03;2.67;;;;;;;15.93;66.65;100071.31;4996490;28;97022;-89
2022/10/25 03:10:43;;;;;;;4.22;2.45;;;;;;;15.97;66.13;100067.53;5003223;28;97985;-89
2022/10/25 03:13:08;;;;;;;5.28;2.13;;;;;;;15.90;66.28;100058.25;4996643;28;100884;-88
2022/10/25 03:15:34;;;;;;;4.18;2.47;;;;;;;15.85;66.32;100066.47;5003282;28;97344;-89
2022/10/25 03:17:59;;;;;;;3.53;2.25;;;;;;;15.82;66.33;100078.13;4972168;28;96938;-89
2022/10/25 03:20:25;;;;;;;5.25;3.38;;;;;;;15.80;66.59;100071.22;5012409;28;97061;-82
2022/10/25 03:22:50;;;;;;;3.92;2.38;;;;;;;15.80;66.38;100069.41;4996173;28;101282;-89
2022/10/25 03:25:16;;;;;;;5.13;2.95;;;;;;;15.78;66.33;100065.16;4979785;28;101130;-90
2022/10/25 03:27:41;;;;;;;4.53;2.45;;;;;;;15.76;66.39;100067.03;4970560;28;98605;-89
2022/10/25 03:30:07;;;;;;;5.25;2.10;;;;;;;15.81;66.22;100071.09;4990849;28;97005;-90
2022/10/25 03:32:32;;;;;;;4.22;2.47;;;;;;;15.77;66.56;100066.94;5000552;28;101997;-90
2022/10/25 03:34:58;;;;;;;6.57;2.80;;;;;;;15.84;66.50;100065.63;4978328;28;98341;-90
2022/10/25 03:37:24;;;;;;;4.70;2.88;;;;;;;15.85;66.20;100058.53;4976150;28;96903;-83
2022/10/25 03:39:49;;;;;;;4.93;2.70;;;;;;;15.90;66.21;100058.25;4992610;28;96790;-90
2022/10/25 03:42:15;;;;;;;5.60;2.80;;;;;;;15.77;66.19;100066.94;4974184;28;101685;-89
2022/10/25 03:44:40;;;;;;;7.05;3.80;;;;;;;15.69;66.20;100061.25;4973581;28;99648;-89
2022/10/25 03:47:06;;;;;;;5.10;3.40;;;;;;;15.73;66.72;100065.41;4983831;28;97048;-89
2022/10/25 03:49:31;;;;;;;5.03;2.70;;;;;;;15.73;66.42;100070.69;4978732;28;96854;-89
2022/10/25 03:51:57;;;;;;;6.57;3.13;;;;;;;15.56;66.87;100050.53;5006084;28;97517;-89
2022/10/25 03:54:22;;;;;;;8.63;2.78;;;;;;;15.64;67.01;100065.91;5024607;28;98403;-81
2022/10/25 03:56:48;;;;;;;6.38;2.50;;;;;;;15.51;66.93;100036.72;4998752;28;96972;-90
2022/10/25 03:59:13;;;;;;;8.07;2.80;;;;;;;15.63;66.77;100056.28;5013022;28;96890;-91
2022/10/25 04:01:39;;;;;;;8.63;3.47;;;;;;;15.69;66.70;100045.38;4974974;28;98403;-90
2022/10/25 04:04:04;;;;;;;9.10;3.05;;;;;;;15.66;66.75;100061.41;4976256;28;100253;-88
2022/10/25 04:06:30;;;;;;;6.43;2.78;;;;;;;15.65;66.93;100072.94;4978380;28;96636;-89
2022/10/25 04:08:56;;;;;;;6.97;2.95;;;;;;;15.69;66.95;100076.28;4995679;28;96872;-89
2022/10/25 04:11:21;;;;;;;5.75;2.90;;;;;;;15.64;66.56;100052.69;4977185;28;99853;-89
2022/10/25 04:13:47;;;;;;;6.93;3.20;;;;;;;15.68;66.51;100059.56;4992723;28;100400;-85
2022/10/25 04:16:13;;;;;;;4.85;3.33;;;;;;;15.68;66.77;100056.91;5002919;28;100458;-89
2022/10/25 04:18:38;;;;;;;6.43;3.15;;;;;;;15.71;66.76;100066.47;5004403;28;96751;-89
2022/10/25 04:21:04;;;;;;;6.28;3.47;;;;;;;15.75;66.93;100062.69;4992564;28;98576;-89
2022/10/25 04:23:30;;;;;;;5.47;3.10;;;;;;;15.73;66.78;100060.13;4981930;28;100208;-89
2022/10/25 04:25:56;;;;;;;6.68;3.25;;;;;;;15.70;66.80;100054.16;4984706;28;98291;-87
2022/10/25 04:28:22;;;;;;;5.07;3.20;;;;;;;15.75;67.02;100067.97;4997155;28;97056;-89
2022/10/25 04:30:48;;;;;;;7.95;3.40;;;;;;;15.73;66.92;100075.16;5004271;28;98370;-89
2022/10/25 04:33:14;;;;;;;4.88;2.63;;;;;;;15.64;67.10;100079.16;4982289;28;99940;-90
2022/10/25 04:35:39;;;;;;;12.07;3.42;;;;;;;15.68;67.08;100079.84;4978813;28;96649;-90
2022/10/25 04:38:05;;;;;;;9.00;3.40;;;;;;;15.65;67.29;100074.72;4996130;28;96711;-89
2022/10/25 04:40:30;;;;;;;4.07;2.75;;;;;;;15.65;67.40;100072.06;4998223;28;98069;-90
2022/10/25 04:42:56;;;;;;;6.68;2.92;;;;;;;15.67;67.49;100072.84;4996613;28;97311;-89
2022/10/25 04:45:21;;;;;;;5.60;2.85;;;;;;;15.70;67.62;100081.47;4954832;28;96943;-88
2022/10/25 04:47:47;;;;;;;4.80;3.13;;;;;;;15.66;67.61;100061.41;5011655;28;96865;-88
2022/10/25 04:50:13;;;;;;;5.05;2.78;;;;;;;15.74;67.57;100076.88;4949358;28;101545;-91
2022/10/25 04:52:38;;;;;;;7.00;3.05;;;;;;;15.66;67.47;100071.13;4994878;28;99310;-90
2022/10/25 04:55:04;;;;;;;4.93;2.65;;;;;;;15.64;67.65;100063.28;4986406;28;100067;-90
2022/10/25 04:57:29;;;;;;;7.88;3.30;;;;;;;15.79;67.43;100080.06;4969064;28;97377;-89
2022/10/25 04:59:56;;;;;;;4.50;2.60;;;;;;;15.77;67.49;100082.81;4979155;28;101313;-89
2022/10/25 05:02:22;;;;;;;5.57;3.13;;;;;;;15.77;68.02;100089.91;4993615;28;101259;-90
2022/10/25 05:04:48;;;;;;;5.18;2.92;;;;;;;15.66;67.36;100069.34;4995259;28;96807;-90
2022/10/25 05:07:18;;;;;;;6.57;3.60;;;;;;;15.81;67.45;100089.63;4995321;28;97405;-88
2022/10/25 05:09:44;;;;;;;5.82;3.75;;;;;;;15.75;67.78;100082.06;4976338;28;101278;-89
2022/10/25 05:12:09;;;;;;;7.68;4.30;;;;;;;15.82;67.29;100090.47;4991587;28;101129;-81
2022/10/25 05:14:35;;;;;;;7.78;3.38;;;;;;;15.75;67.73;100089.16;4997768;28;96954;-85
2022/10/25 05:17:01;;;;;;;10.73;3.55;;;;;;;15.75;67.64;100089.16;4998399;28;96991;-90
2022/10/25 05:19:26;;;;;;;8.48;3.47;;;;;;;15.74;67.74;100095.38;4984183;28;101364;-89
2022/10/25 05:21:52;;;;;;;6.43;3.20;;;;;;;15.78;68.05;100104.84;5014194;28;96548;-82
2022/10/25 05:24:17;;;;;;;10.57;4.20;;;;;;;15.82;68.03;100109.00;5005754;28;96759;-87
2022/10/25 05:26:43;;;;;;;6.10;3.47;;;;;;;15.82;67.79;100106.34;4996176;28;97201;-87
2022/10/25 05:29:10;;;;;;;9.05;3.95;;;;;;;15.82;67.68;100104.59;4995912;28;101297;-86
2022/10/25 05:31:37;;;;;;;5.40;3.70;;;;;;;15.78;67.65;100110.97;4979207;28;101564;-87
2022/10/25 05:34:03;;;;;;;6.70;3.65;;;;;;;15.73;68.27;100115.69;4974990;28;96982;-87
2022/10/25 05:36:28;;;;;;;6.13;3.60;;;;;;;15.73;68.00;100118.31;4999176;28;96910;-85
2022/10/25 05:38:54;;;;;;;8.35;4.47;;;;;;;15.72;68.20;100113.16;4981111;28;99844;-87
2022/10/25 05:41:20;;;;;;;10.35;5.70;;;;;;;15.71;68.29;100107.00;4980308;28;97276;-87
2022/10/25 05:43:46;;;;;;;10.02;4.95;;;;;;;15.69;68.06;100106.22;4960324;28;97154;-85
2022/10/25 05:46:19;;;;;;;7.25;4.18;;;;;;;15.70;67.90;100104.44;4990842;28;97589;-85
2022/10/25 05:48:45;;;;;;;11.13;4.85;;;;;;;15.69;68.14;100118.63;4979202;28;97624;-83
2022/10/25 05:51:15;;;;;;;15.73;4.82;;;;;;;15.63;68.29;100117.16;4996649;28;100929;-89
2022/10/25 05:53:44;;;;;;;10.18;4.68;;;;;;;15.60;68.32;100125.25;4996779;28;97310;-89
2022/10/25 05:56:10;;;;;;;7.47;4.25;;;;;;;15.61;68.27;100126.97;4990178;28;99941;-83
2022/10/25 05:58:36;;;;;;;9.82;4.40;;;;;;;15.59;68.43;100123.53;5013264;28;98422;-88
2022/10/25 06:01:01;;;;;;;9.73;4.32;;;;;;;15.56;68.55;100126.34;4983267;28;99866;-84
2022/10/25 06:03:27;;;;;;;9.82;5.07;;;;;;;15.42;68.59;100102.50;4996023;28;97095;-88
2022/10/25 06:05:53;;;;;;;8.25;4.65;;;;;;;15.63;68.67;100146.25;4982720;28;97436;-88
2022/10/25 06:08:18;;;;;;;10.23;5.38;;;;;;;15.70;68.36;100146.78;4991783;28;100999;-88
2022/10/25 06:10:44;;;;;;;15.20;5.72;;;;;;;15.70;68.41;100144.97;4976018;28;101136;-88
2022/10/25 06:13:09;;;;;;;11.10;4.72;;;;;;;15.75;67.97;100144.72;4994658;28;97415;-89
2022/10/25 06:15:37;;;;;;;11.85;4.57;;;;;;;15.75;68.10;100145.56;4987823;28;97655;-82
2022/10/25 06:18:03;;;;;;;8.27;4.10;;;;;;;15.67;68.33;100128.41;4978345;28;101917;-88
2022/10/25 06:20:28;;;;;;;9.65;4.20;;;;;;;15.75;68.13;100150.00;4996197;28;97838;-89
2022/10/25 06:22:54;;;;;;;11.00;4.28;;;;;;;15.72;68.11;100158.13;4992529;28;97504;-86
2022/10/25 06:25:20;;;;;;;8.90;4.20;;;;;;;15.77;68.16;100167.50;4986639;28;97259;-88
2022/10/25 06:27:45;;;;;;;7.13;4.50;;;;;;;15.78;68.37;100169.19;4972515;28;100215;-89
2022/10/25 06:30:11;;;;;;;7.78;4.75;;;;;;;15.79;68.20;100173.53;4993819;28;98398;-90
2022/10/25 06:32:37;;;;;;;9.43;4.75;;;;;;;15.79;68.38;100180.63;4978473;28;96820;-82
2022/10/25 06:35:03;;;;;;;14.90;6.10;;;;;;;15.69;68.56;100180.31;4979965;28;96870;-90
2022/10/25 06:37:29;;;;;;;11.95;5.60;;;;;;;15.80;68.24;100179.72;4977122;28;99925;-87
2022/10/25 06:39:54;;;;;;;15.07;6.03;;;;;;;15.88;67.92;100179.25;4981750;28;101016;-87
2022/10/25 06:42:20;;;;;;;9.43;6.18;;;;;;;15.80;68.50;100185.00;4976048;28;97708;-87
2022/10/25 06:44:45;;;;;;;7.93;5.03;;;;;;;15.80;68.45;100191.16;4977628;28;98084;-84
2022/10/25 06:47:11;;;;;;;7.85;5.13;;;;;;;15.83;68.82;100190.13;4992714;28;101108;-87
2022/10/25 06:49:36;;;;;;;8.82;5.05;;;;;;;15.87;68.39;100173.09;4981325;28;101037;-83
2022/10/25 06:52:02;;;;;;;16.85;6.28;;;;;;;16.02;68.18;100188.09;5005106;28;96826;-86
2022/10/25 06:54:28;;;;;;;15.30;5.95;;;;;;;16.11;67.82;100186.69;4960407;28;97853;-86
2022/10/25 06:56:53;;;;;;;11.88;5.53;;;;;;;16.35;67.67;100183.53;4971387;28;97841;-84
2022/10/25 06:59:19;;;;;;;8.70;6.03;;;;;;;16.45;67.48;100185.53;4996152;28;101202;-84
2022/10/25 07:01:45;;;;;;;9.80;4.72;;;;;;;16.51;67.13;100193.09;4978271;28;96815;-86
2022/10/25 07:04:11;;;;;;;10.88;5.25;;;;;;;16.69;66.76;100188.47;4977692;28;98227;-84
2022/10/25 07:06:36;;;;;;;10.15;5.30;;;;;;;16.96;66.50;100193.91;4990447;28;101088;-81
2022/10/25 07:09:03;;;;;;;9.63;5.13;;;;;;;17.15;65.93;100192.75;5008038;28;101455;-90
2022/10/25 07:11:31;;;;;;;8.85;5.15;;;;;;;17.06;65.96;100169.47;4993111;28;97937;-85
2022/10/25 07:13:58;;;;;;;7.57;5.07;;;;;;;17.14;65.65;100186.59;4992545;28;98227;-85
2022/10/25 07:16:24;;;;;;;9.40;5.07;;;;;;;17.20;65.76;100190.66;4993944;28;101260;-85
2022/10/25 07:18:50;;;;;;;8.38;4.63;;;;;;;17.12;65.86;100177.03;4993893;28;97364;-89
2022/10/25 07:21:20;;;;;;;10.60;4.57;;;;;;;17.24;66.42;100197.47;5014918;28;96865;-91
2022/10/25 07:23:47;;;;;;;8.35;4.57;;;;;;;17.16;66.64;100175.88;4979481;28;96812;-88
2022/10/25 07:26:17;;;;;;;8.73;4.70;;;;;;;17.19;66.57;100181.88;4976465;28;100706;-90
2022/10/25 07:28:44;;;;;;;13.90;4.90;;;;;;;17.32;67.15;100199.63;4974633;28;101107;-87
2022/10/25 07:31:15;;;;;;;12.68;5.03;;;;;;;17.32;66.62;100195.19;4995604;28;97414;-87
2022/10/25 07:33:41;;;;;;;15.15;5.93;;;;;;;17.19;66.81;100170.38;4955495;28;97347;-83
2022/10/25 07:36:06;;;;;;;19.55;6.93;;;;;;;17.36;66.65;100201.13;4975677;28;101317;-89
2022/10/25 07:38:32;;;;;;;8.63;4.50;;;;;;;17.39;66.02;100191.19;4950754;28;101285;-85
2022/10/25 07:40:58;;;;;;;9.27;4.10;;;;;;;17.56;65.59;100200.69;4984826;28;98272;-84
2022/10/25 07:43:27;;;;;;;5.68;3.60;;;;;;;17.56;65.70;100203.34;4984854;28;98344;-86
2022/10/25 07:45:53;;;;;;;9.65;4.18;;;;;;;17.74;65.34;100211.06;4962350;28;100833;-84
2022/10/25 07:48:19;;;;;;;6.57;4.13;;;;;;;18.03;64.97;100206.53;4990922;28;98022;-86
2022/10/25 07:50:44;;;;;;;6.90;3.80;;;;;;;18.67;67.66;100204.78;4993625;28;97288;-88
2022/10/25 07:53:10;;;;;;;10.73;4.47;;;;;;;19.26;64.13;100203.34;4961927;28;96964;-90
2022/10/25 07:55:36;;;;;;;10.63;4.07;;;;;;;19.59;61.68;100208.88;4978549;28;100348;-90
2022/10/25 07:58:07;;;;;;;4.82;3.28;;;;;;;19.43;60.75;100209.19;4978317;28;100776;-87
2022/10/25 08:00:34;;;;;;;10.03;3.47;;;;;;;19.20;61.16;100202.84;4965935;28;97994;-85
2022/10/25 08:03:00;;;;;;;10.30;3.80;;;;;;;19.29;61.43;100219.97;4997498;28;97224;-85
2022/10/25 08:05:26;;;;;;;7.57;3.28;;;;;;;19.16;61.60;100213.81;4979151;28;101509;-85
2022/10/25 08:07:52;;;;;;;7.25;3.00;;;;;;;19.04;61.99;100214.69;4996977;28;99219;-84
2022/10/25 08:10:19;;;;;;;7.85;3.00;;;;;;;18.77;62.13;100200.56;4998429;28;96890;-84
2022/10/25 08:12:45;;;;;;;9.88;3.10;;;;;;;18.66;62.37;100207.56;4964106;28;96948;-85
2022/10/25 08:15:11;;;;;;;6.82;3.05;;;;;;;18.70;63.10;100212.56;4995565;28;101776;-84
2022/10/25 08:17:37;;;;;;;5.13;2.35;;;;;;;18.69;62.28;100216.16;4996722;28;98052;-87
2022/10/25 08:20:03;;;;;;;7.38;2.70;;;;;;;18.62;61.76;100208.75;4996717;28;96892;-83
2022/10/25 08:22:28;;;;;;;6.07;2.50;;;;;;;19.02;61.54;100216.59;4986229;28;97238;-83
2022/10/25 08:24:54;;;;;;;6.80;3.00;;;;;;;19.48;60.77;100203.50;4982733;28;101246;-83
2022/10/25 08:27:19;;;;;;;6.28;2.88;;;;;;;19.53;59.94;100198.69;4968701;28;100456;-87
2022/10/25 08:29:45;;;;;;;7.93;2.92;;;;;;;19.48;59.55;100203.50;4994816;28;96722;-87
2022/10/25 08:32:11;;;;;;;7.97;2.78;;;;;;;19.40;59.14;100206.75;4967952;28;96799;-88
2022/10/25 08:34:36;;;;;;;5.68;2.80;;;;;;;19.48;59.43;100219.47;4985948;28;98595;-87
2022/10/25 08:37:02;;;;;;;3.95;2.78;;;;;;;19.34;59.92;100214.28;4982317;28;101586;-88
2022/10/25 08:39:27;;;;;;;7.72;3.00;;;;;;;19.21;59.49;100211.69;4977461;28;96711;-88
2022/10/25 08:41:55;;;;;;;6.80;2.80;;;;;;;19.17;59.90;100213.72;4992808;28;96899;-86
2022/10/25 08:44:26;;;;;;;9.55;2.75;;;;;;;19.29;59.91;100221.78;5013285;28;98037;-83
2022/10/25 08:46:58;;;;;;;6.32;3.10;;;;;;;19.24;59.83;100224.75;4980250;28;97683;-89
2022/10/25 08:49:42;;;;;;;6.50;2.85;;;;;;;19.26;59.80;100224.63;4988943;28;96655;-88
2022/10/25 08:52:17;;;;;;;5.03;2.72;;;;;;;19.25;60.13;100229.09;4990561;28;96877;-92
2022/10/25 08:54:43;;;;;;;6.15;2.90;;;;;;;19.40;59.68;100228.03;4987672;28;101135;-83
2022/10/25 08:57:26;;;;;;;5.78;2.60;;;;;;;19.46;59.38;100197.47;4999785;28;100135;-90
2022/10/25 08:59:55;;;;;;;6.60;2.63;;;;;;;19.63;58.63;100209.50;4981275;28;97069;-91
2022/10/25 09:02:38;;;;;;;7.13;2.55;;;;;;;20.03;58.00;100223.41;4959916;28;1263392;-91
2022/10/25 09:05:13;;;;;;;7.90;2.60;;;;;;;20.85;56.53;100220.72;4977306;28;101227;-91
2022/10/25 09:07:59;;;;;;;5.03;2.22;;;;;;;21.60;57.31;100213.88;4984562;28;100563;-92
2022/10/25 09:10:46;;;;;;;6.65;2.60;;;;;;;22.24;54.79;100227.28;4997669;28;96917;-87
2022/10/25 09:13:34;;;;;;;11.00;2.80;;;;;;;22.65;53.19;100214.88;5008998;28;96915;-85
2022/10/25 09:16:23;;;;;;;4.28;2.28;;;;;;;22.90;51.16;100218.09;4995154;28;101667;-85
2022/10/25 09:18:50;;;;;;;7.50;2.10;;;;;;;23.02;50.29;100223.25;4980722;28;99971;-83
2022/10/25 09:21:43;;;;;;;7.90;3.40;;;;;;;23.02;49.59;100209.88;4980298;28;96771;-86
2022/10/25 09:24:19;;;;;;;6.03;2.53;;;;;;;23.46;49.80;100202.38;4990877;28;98104;-83
2022/10/25 09:26:58;;;;;;;9.07;3.00;;;;;;;23.97;49.31;100226.44;4983357;28;97575;-82
2022/10/25 09:29:34;;;;;;;6.00;2.85;;;;;;;24.18;47.77;100227.16;4999942;28;101310;-84
2022/10/25 09:32:01;;;;;;;6.75;3.70;;;;;;;23.66;48.90;100229.22;4980119;28;97150;-84
2022/10/25 09:34:31;;;;;;;8.90;2.88;;;;;;;23.11;49.72;100224.28;5022278;28;97155;-85
2022/10/25 09:37:27;;;;;;;5.40;2.45;;;;;;;22.74;50.52;100224.75;4973896;28;101554;-82
2022/10/25 09:39:56;;;;;;;4.68;1.88;;;;;;;22.52;50.89;100236.47;4954573;28;101101;-84
2022/10/25 09:42:32;;;;;;;5.50;1.80;;;;;;;22.07;51.54;100235.81;4959177;28;96974;-85
2022/10/25 09:45:03;;;;;;;4.40;1.88;;;;;;;21.68;52.02;100212.28;5005281;28;97378;-85
2022/10/25 09:47:41;;;;;;;5.70;1.88;;;;;;;21.45;52.43;100232.84;4985330;28;101426;-82
2022/10/25 09:50:29;;;;;;;5.80;1.63;;;;;;;21.04;53.65;100217.47;5002572;28;97874;-83
2022/10/25 09:53:21;;;;;;;5.53;1.67;;;;;;;21.46;52.40;100231.03;4978513;28;97881;-83
2022/10/25 09:55:54;;;;;;;8.18;2.28;;;;;;;21.13;53.48;100231.91;4963049;28;97398;-84
2022/10/25 09:58:26;;;;;;;7.03;2.40;;;;;;;20.93;53.82;100236.97;4972105;28;100809;-85
2022/10/25 10:00:54;;;;;;;7.22;2.17;;;;;;;20.74;53.87;100236.72;4997215;28;99693;-85
2022/10/25 10:03:20;;;;;;;5.15;1.98;;;;;;;20.50;54.50;100239.44;5011649;28;97240;-85
2022/10/25 10:05:55;;;;;;;7.10;1.85;;;;;;;20.58;54.23;100235.25;4990386;28;97285;-83
2022/10/25 10:08:22;;;;;;;5.80;1.75;;;;;;;20.95;53.33;100226.19;4990726;28;101295;-89
2022/10/25 10:10:49;;;;;;;7.63;2.55;;;;;;;21.30;54.14;100227.88;4994288;28;97381;-89
2022/10/25 10:13:19;;;;;;;7.65;2.35;;;;;;;21.45;53.60;100219.50;4976879;28;96889;-92
2022/10/25 10:15:59;;;;;;;5.85;2.30;;;;;;;21.53;53.05;100231.41;5001645;28;97432;-84
2022/10/25 10:18:32;;;;;;;3.00;1.48;;;;;;;21.73;52.56;100224.41;4969582;28;98140;-87
2022/10/25 10:21:09;;;;;;;4.10;1.80;;;;;;;21.74;52.70;100221.63;4979174;28;101488;-87
2022/10/25 10:23:46;;;;;;;4.07;1.63;;;;;;;21.69;53.92;100234.50;4987774;28;96987;-81
2022/10/25 10:26:27;;;;;;;8.80;1.80;;;;;;;21.53;53.56;100231.41;4982595;28;96923;-86
2022/10/25 10:29:08;;;;;;;10.25;2.03;;;;;;;21.35;53.58;100226.53;4992824;28;101747;-85
2022/10/25 10:31:40;;;;;;;6.63;1.73;;;;;;;21.44;53.42;100227.66;5012865;28;97792;-86
2022/10/25 10:34:29;;;;;;;5.13;2.05;;;;;;;21.31;53.14;100222.41;5009309;28;97211;-87
2022/10/25 10:37:04;;;;;;;5.68;2.05;;;;;;;21.20;52.93;100225.09;4992349;28;97980;-85
2022/10/25 10:39:30;;;;;;;3.53;1.38;;;;;;;21.27;53.67;100231.66;5000821;28;98371;-84
2022/10/25 10:42:01;;;;;;;11.00;1.88;;;;;;;21.09;53.09;100233.97;4977032;28;98474;-87
2022/10/25 10:44:33;;;;;;;4.97;1.92;;;;;;;20.97;53.15;100224.25;4995149;28;96718;-87
2022/10/25 10:47:00;;;;;;;3.80;1.45;;;;;;;20.88;53.27;100208.97;5013742;28;96720;-86
2022/10/25 10:49:35;;;;;;;7.43;1.83;;;;;;;20.93;52.83;100233.47;4984546;28;101358;-89
2022/10/25 10:52:02;;;;;;;5.25;1.85;;;;;;;20.84;52.77;100232.38;4969589;28;101191;-88
2022/10/25 10:54:31;;;;;;;3.92;1.75;;;;;;;20.80;52.81;100238.94;4968453;28;96748;-86
2022/10/25 10:57:04;;;;;;;5.40;1.30;;;;;;;20.56;52.82;100221.16;4995229;28;96998;-84
2022/10/25 10:59:37;;;;;;;4.15;1.17;;;;;;;20.46;52.60;100230.81;4960022;28;101527;-88
2022/10/25 11:02:11;;;;;;;6.22;1.70;;;;;;;20.31;53.09;100221.34;5006232;28;101086;-86
2022/10/25 11:04:47;;;;;;;7.30;1.80;;;;;;;20.29;53.15;100247.25;4975230;28;97752;-86
2022/10/25 11:07:19;;;;;;;3.70;1.63;;;;;;;20.23;53.38;100250.38;4992321;28;97960;-86
2022/10/25 11:09:45;;;;;;;2.58;1.48;;;;;;;20.11;53.52;100244.16;4995359;28;101885;-86
2022/10/25 11:12:13;;;;;;;3.78;1.83;;;;;;;20.07;53.95;100240.88;4992315;28;98365;-86
2022/10/25 11:14:39;;;;;;;5.10;1.63;;;;;;;20.00;54.00;100249.44;4995958;28;97047;-83
2022/10/25 11:17:45;;;;;;;5.95;2.30;;;;;;;20.04;53.99;100245.56;4993965;28;97011;-89
2022/10/25 11:20:25;;;;;;;7.53;1.60;;;;;;;20.09;53.94;100246.94;4974114;28;98448;-89
2022/10/25 11:23:06;;;;;;;4.10;1.40;;;;;;;20.10;53.97;100250.44;4989281;28;101685;-89
2022/10/25 11:25:38;;;;;;;9.05;1.95;;;;;;;19.98;54.01;100216.72;4995225;28;97456;-87
2022/10/25 11:28:41;;;;;;;6.72;1.30;;;;;;;20.16;53.97;100241.13;4983077;28;97121;-87
2022/10/25 11:31:26;;;;;;;4.93;1.38;;;;;;;20.17;53.68;100246.38;4994814;28;100365;-84
2022/10/25 11:34:10;;;;;;;7.25;1.70;;;;;;;20.15;52.95;100244.78;4994104;28;101299;-84